^^
Paulen-Weather Station Historical Data
Daily Summary for February 19, 2022 Units:  Metric    English   Both
Daily Weekly Monthly Yearly Custom
  High: Low: Average:
Temperature: 4 °C 0 °C 2 °C
Dew Point: 2 °C -2 °C 0.1 °C
Humidity: 97% 75% 88%
Wind Speed: 35km/h 0km/h 11.1km/h
Wind Gust: 34km/h - -
Wind- - WNW
Pressure: 998.04 hPa 974.7 hPa -
Precipitation: 0.99 mm    
Historical Graphs
 
 
Tabular Data for February 19, 2022
Time Temperature Dew Point Pressure Wind Wind Speed Wind Gust Humidity Rainfall Rate (Hourly) solar
00:04 2 °C 1 °C 974.7 hPa N 33 km/h 31 km/h 94% 0.2 mm 0 W/m2
00:09 2 °C 1 °C 974.87 hPa N 34 km/h 31 km/h 94% 0.2 mm 0 W/m2
00:14 2 °C 1 °C 974.98 hPa N 35 km/h 34 km/h 93% 0.2 mm 0 W/m2
00:19 2 °C 1 °C 975.18 hPa N 33 km/h 29 km/h 93% 0.2 mm 0 W/m2
00:24 2 °C 1 °C 975.28 hPa N 35 km/h 33 km/h 93% 0.2 mm 0 W/m2
00:29 2 °C 1 °C 975.52 hPa N 30 km/h 23 km/h 93% 0.41 mm 0 W/m2
00:34 2 °C 1 °C 975.79 hPa N 34 km/h 32 km/h 92% 0.41 mm 0 W/m2
00:39 2 °C 1 °C 975.99 hPa N 33 km/h 28 km/h 92% 0.41 mm 0 W/m2
00:44 2 °C 1 °C 976.16 hPa N 27 km/h 23 km/h 92% 0.41 mm 0 W/m2
00:49 2 °C 1 °C 976.3 hPa N 24 km/h 20 km/h 92% 0.2 mm 0 W/m2
00:54 2 °C 1 °C 976.5 hPa NNW 25 km/h 20 km/h 92% 0.2 mm 0 W/m2
00:59 2 °C 1 °C 976.7 hPa NNW 28 km/h 25 km/h 92% 0.2 mm 0 W/m2
01:04 2 °C 1 °C 976.87 hPa NNW 27 km/h 22 km/h 92% 0.2 mm 0 W/m2
01:09 2 °C 1 °C 977.04 hPa N 28 km/h 22 km/h 92% 0.2 mm 0 W/m2
01:14 2 °C 1 °C 977.18 hPa N 28 km/h 23 km/h 92% 0.2 mm 0 W/m2
01:19 2 °C 1 °C 977.31 hPa N 23 km/h 20 km/h 92% 0.2 mm 0 W/m2
01:24 2 °C 1 °C 977.41 hPa N 20 km/h 16 km/h 92% 0.2 mm 0 W/m2
01:29 2 °C 1 °C 977.51 hPa N 19 km/h 15 km/h 92% 0.2 mm 0 W/m2
01:34 2 °C 1 °C 977.65 hPa NNW 22 km/h 22 km/h 92% 0 mm 0 W/m2
01:39 2 °C 1 °C 977.79 hPa NNW 27 km/h 24 km/h 91% 0 mm 0 W/m2
01:44 2 °C 1 °C 978.02 hPa NW 24 km/h 22 km/h 91% 0 mm 0 W/m2
01:49 2 °C 1 °C 978.16 hPa NNW 25 km/h 22 km/h 91% 0 mm 0 W/m2
01:54 2 °C 0 °C 978.33 hPa NNW 26 km/h 24 km/h 90% 0 mm 0 W/m2
01:59 2 °C 0 °C 978.5 hPa NNW 28 km/h 27 km/h 90% 0 mm 0 W/m2
02:04 2 °C 1 °C 978.67 hPa NNW 33 km/h 27 km/h 89% 0 mm 0 W/m2
02:09 2 °C 1 °C 978.77 hPa NNW 33 km/h 28 km/h 88% 0 mm 0 W/m2
02:14 2 °C 1 °C 979.11 hPa NNW 34 km/h 30 km/h 87% 0 mm 0 W/m2
02:19 2 °C 0 °C 979.21 hPa NNW 31 km/h 29 km/h 87% 0 mm 0 W/m2
02:24 2 °C 0 °C 979.38 hPa NNW 31 km/h 29 km/h 87% 0 mm 0 W/m2
02:29 2 °C 0 °C 979.51 hPa NNW 32 km/h 30 km/h 87% 0 mm 0 W/m2
02:34 2 °C 0 °C 979.61 hPa NNW 27 km/h 25 km/h 87% 0 mm 0 W/m2
02:39 2 °C 0 °C 979.85 hPa NNW 27 km/h 26 km/h 87% 0 mm 0 W/m2
02:44 2 °C 0 °C 979.99 hPa NW 26 km/h 24 km/h 87% 0 mm 0 W/m2
02:49 2 °C 0 °C 980.22 hPa NNW 25 km/h 23 km/h 87% 0 mm 0 W/m2
02:54 2 °C 0 °C 980.36 hPa NW 25 km/h 21 km/h 87% 0 mm 0 W/m2
02:59 2 °C 0 °C 980.53 hPa NW 25 km/h 22 km/h 86% 0 mm 0 W/m2
03:04 2 °C 0 °C 980.7 hPa NW 24 km/h 23 km/h 86% 0 mm 0 W/m2
03:09 2 °C 0 °C 980.87 hPa NW 23 km/h 21 km/h 85% 0 mm 0 W/m2
03:14 2 °C 0 °C 981 hPa NW 25 km/h 22 km/h 85% 0 mm 0 W/m2
03:19 2 °C 0 °C 981.21 hPa NW 25 km/h 24 km/h 85% 0 mm 0 W/m2
03:24 2 °C 0 °C 981.34 hPa NW 24 km/h 22 km/h 85% 0 mm 0 W/m2
03:29 2 °C 0 °C 981.48 hPa NW 25 km/h 21 km/h 85% 0 mm 0 W/m2
03:34 2 °C 0 °C 981.61 hPa NW 23 km/h 21 km/h 85% 0 mm 0 W/m2
03:39 2 °C 0 °C 981.82 hPa NW 23 km/h 21 km/h 86% 0 mm 0 W/m2
03:44 2 °C 0 °C 982.02 hPa NW 22 km/h 19 km/h 85% 0 mm 0 W/m2
03:49 2 °C 0 °C 982.36 hPa NW 19 km/h 16 km/h 84% 0 mm 0 W/m2
03:54 2 °C 0 °C 982.56 hPa NW 17 km/h 14 km/h 84% 0 mm 0 W/m2
03:59 2 °C 0 °C 982.7 hPa NW 17 km/h 13 km/h 84% 0 mm 0 W/m2
04:04 2 °C 0 °C 982.97 hPa NW 18 km/h 14 km/h 84% 0 mm 0 W/m2
04:09 2 °C 0 °C 983.14 hPa NW 17 km/h 13 km/h 84% 0 mm 0 W/m2
04:14 2 °C 0 °C 983.17 hPa NW 17 km/h 16 km/h 84% 0 mm 0 W/m2
04:19 2 °C 0 °C 983.31 hPa NW 20 km/h 19 km/h 84% 0 mm 0 W/m2
04:24 2 °C 0 °C 983.41 hPa NW 18 km/h 18 km/h 84% 0 mm 0 W/m2
04:29 2 °C 0 °C 983.61 hPa NW 11 km/h 10 km/h 84% 0 mm 0 W/m2
04:34 2 °C 0 °C 983.81 hPa NW 12 km/h 10 km/h 84% 0 mm 0 W/m2
04:39 2 °C -1 °C 983.95 hPa NW 10 km/h 9 km/h 84% 0 mm 0 W/m2
04:44 2 °C -1 °C 984.05 hPa NW 13 km/h 10 km/h 84% 0 mm 0 W/m2
04:49 2 °C -1 °C 984.22 hPa NW 17 km/h 15 km/h 84% 0 mm 0 W/m2
04:54 2 °C -1 °C 984.36 hPa NW 17 km/h 16 km/h 83% 0 mm 0 W/m2
04:59 2 °C -1 °C 984.56 hPa NW 12 km/h 11 km/h 83% 0 mm 0 W/m2
05:04 2 °C -1 °C 984.69 hPa NW 16 km/h 14 km/h 83% 0 mm 0 W/m2
05:09 2 °C -1 °C 984.86 hPa NW 16 km/h 13 km/h 82% 0 mm 0 W/m2
05:14 2 °C -1 °C 985.03 hPa NW 12 km/h 12 km/h 82% 0 mm 0 W/m2
05:19 2 °C -1 °C 985.1 hPa NW 15 km/h 11 km/h 81% 0 mm 0 W/m2
05:24 2 °C -1 °C 985.27 hPa NW 14 km/h 12 km/h 81% 0 mm 0 W/m2
05:29 2 °C -1 °C 985.47 hPa NW 13 km/h 11 km/h 82% 0 mm 0 W/m2
05:34 2 °C -1 °C 985.68 hPa NW 14 km/h 12 km/h 83% 0 mm 0 W/m2
05:39 2 °C -1 °C 985.68 hPa NNW 15 km/h 14 km/h 84% 0 mm 0 W/m2
05:44 2 °C -1 °C 985.85 hPa NW 15 km/h 13 km/h 85% 0 mm 0 W/m2
05:49 2 °C -1 °C 985.95 hPa NW 14 km/h 14 km/h 85% 0 mm 0 W/m2
05:54 2 °C -1 °C 986.08 hPa NW 16 km/h 15 km/h 83% 0 mm 0 W/m2
05:59 2 °C -1 °C 986.12 hPa NW 10 km/h 8 km/h 83% 0 mm 0 W/m2
06:04 2 °C -1 °C 986.22 hPa NW 12 km/h 11 km/h 83% 0 mm 0 W/m2
06:09 2 °C -1 °C 986.35 hPa NW 14 km/h 13 km/h 83% 0 mm 0 W/m2
06:14 2 °C -1 °C 986.49 hPa NW 20 km/h 16 km/h 82% 0 mm 0 W/m2
06:19 2 °C -1 °C 986.59 hPa NW 19 km/h 16 km/h 80% 0 mm 0 W/m2
06:24 2 °C -1 °C 986.69 hPa NW 19 km/h 16 km/h 80% 0 mm 0 W/m2
06:29 2 °C -2 °C 986.83 hPa NW 19 km/h 16 km/h 78% 0 mm 0 W/m2
06:34 2 °C -2 °C 987.06 hPa NW 24 km/h 20 km/h 76% 0 mm 0 W/m2
06:39 2 °C -2 °C 987.27 hPa NW 18 km/h 15 km/h 75% 0 mm 0 W/m2
06:44 2 °C -2 °C 987.44 hPa NW 16 km/h 14 km/h 76% 0 mm 0 W/m2
06:49 2 °C -2 °C 987.47 hPa NW 7 km/h 7 km/h 76% 0 mm 0 W/m2
06:54 2 °C -2 °C 987.64 hPa NNW 7 km/h 5 km/h 77% 0 mm 0 W/m2
06:59 2 °C -2 °C 987.67 hPa NNW 6 km/h 5 km/h 77% 0 mm 0 W/m2
07:04 2 °C -2 °C 987.88 hPa NNW 3 km/h 2 km/h 77% 0 mm 0 W/m2
07:09 1 °C -2 °C 988.01 hPa WSW 6 km/h 6 km/h 78% 0 mm 0 W/m2
07:14 1 °C -2 °C 988.11 hPa WSW 7 km/h 6 km/h 79% 0 mm 0 W/m2
07:19 1 °C -2 °C 988.22 hPa W 5 km/h 5 km/h 80% 0 mm 0 W/m2
07:24 1 °C -2 °C 988.22 hPa WNW 5 km/h 4 km/h 81% 0 mm 0 W/m2
07:29 1 °C -2 °C 988.22 hPa WNW 9 km/h 7 km/h 82% 0 mm 0 W/m2
07:34 1 °C -2 °C 988.28 hPa NW 12 km/h 11 km/h 82% 0 mm 0 W/m2
07:39 1 °C -2 °C 988.39 hPa NW 17 km/h 14 km/h 81% 0 mm 0 W/m2
07:44 1 °C -2 °C 988.52 hPa NW 15 km/h 15 km/h 80% 0 mm 0 W/m2
07:49 1 °C -2 °C 988.72 hPa WNW 17 km/h 14 km/h 79% 0 mm 0 W/m2
07:54 1 °C -2 °C 988.89 hPa WNW 9 km/h 7 km/h 79% 0 mm 7 W/m2
07:59 1 °C -2 °C 989.03 hPa NW 3 km/h 1 km/h 80% 0 mm 12 W/m2
08:04 1 °C -2 °C 989.13 hPa WNW 3 km/h 1 km/h 81% 0 mm 21 W/m2
08:09 1 °C -2 °C 989.2 hPa WNW 9 km/h 6 km/h 82% 0 mm 21 W/m2
08:14 1 °C -2 °C 989.44 hPa WNW 8 km/h 8 km/h 82% 0 mm 25 W/m2
08:19 1 °C -2 °C 989.71 hPa WNW 8 km/h 6 km/h 82% 0 mm 35 W/m2
08:24 1 °C -2 °C 989.81 hPa WNW 7 km/h 5 km/h 82% 0 mm 47 W/m2
08:29 1 °C -2 °C 989.98 hPa NW 4 km/h 4 km/h 82% 0 mm 72 W/m2
08:34 1 °C -2 °C 990.15 hPa WNW 5 km/h 3 km/h 82% 0 mm 84 W/m2
08:39 1 °C -2 °C 990.28 hPa NW 5 km/h 3 km/h 82% 0 mm 63 W/m2
08:44 1 °C -2 °C 990.42 hPa WNW 11 km/h 10 km/h 81% 0 mm 107 W/m2
08:49 1 °C -2 °C 990.45 hPa NW 10 km/h 8 km/h 81% 0 mm 104 W/m2
08:54 1 °C -2 °C 990.59 hPa NW 9 km/h 8 km/h 81% 0 mm 113 W/m2
08:59 1 °C -2 °C 990.72 hPa NW 9 km/h 7 km/h 81% 0 mm 118 W/m2
09:04 1 °C -2 °C 990.99 hPa NW 8 km/h 7 km/h 81% 0 mm 134 W/m2
09:09 1 °C -2 °C 991.09 hPa NW 8 km/h 8 km/h 81% 0 mm 149 W/m2
09:14 1 °C -2 °C 991.16 hPa NW 9 km/h 8 km/h 81% 0 mm 149 W/m2
09:19 1 °C -2 °C 991.33 hPa NNW 8 km/h 8 km/h 81% 0 mm 160 W/m2
09:24 1 °C -2 °C 991.43 hPa NNW 9 km/h 7 km/h 81% 0 mm 171 W/m2
09:29 1 °C -1 °C 991.57 hPa NW 7 km/h 7 km/h 81% 0 mm 132 W/m2
09:34 1 °C -1 °C 991.6 hPa NNW 6 km/h 6 km/h 81% 0 mm 134 W/m2
09:39 1 °C -1 °C 991.7 hPa NW 8 km/h 7 km/h 81% 0 mm 148 W/m2
09:44 2 °C -1 °C 991.81 hPa NNW 7 km/h 6 km/h 81% 0 mm 160 W/m2
09:49 2 °C -1 °C 991.77 hPa N 6 km/h 5 km/h 81% 0 mm 179 W/m2
09:54 2 °C -1 °C 991.84 hPa NNW 11 km/h 9 km/h 81% 0 mm 206 W/m2
09:59 2 °C -1 °C 992.04 hPa NW 10 km/h 10 km/h 80% 0 mm 193 W/m2
10:04 2 °C -1 °C 992.11 hPa WNW 6 km/h 5 km/h 80% 0 mm 213 W/m2
10:09 2 °C -1 °C 992.25 hPa NW 5 km/h 5 km/h 80% 0 mm 221 W/m2
10:14 2 °C -1 °C 992.38 hPa NW 5 km/h 5 km/h 80% 0 mm 241 W/m2
10:19 2 °C -1 °C 992.48 hPa WNW 2 km/h 2 km/h 80% 0 mm 272 W/m2
10:24 3 °C 0 °C 992.55 hPa W 5 km/h 3 km/h 80% 0 mm 274 W/m2
10:29 3 °C 0 °C 992.65 hPa W 8 km/h 5 km/h 79% 0 mm 265 W/m2
10:34 3 °C 0 °C 992.75 hPa W 9 km/h 7 km/h 79% 0 mm 278 W/m2
10:39 3 °C 0 °C 992.89 hPa W 7 km/h 8 km/h 79% 0 mm 278 W/m2
10:44 3 °C 0 °C 992.92 hPa W 6 km/h 8 km/h 80% 0 mm 271 W/m2
10:49 3 °C 0 °C 992.96 hPa WNW 9 km/h 4 km/h 80% 0 mm 299 W/m2
10:54 3 °C 0 °C 993.06 hPa W 13 km/h 8 km/h 79% 0 mm 297 W/m2
10:59 3 °C 0 °C 993.16 hPa W 14 km/h 12 km/h 80% 0 mm 281 W/m2
11:04 3 °C 0 °C 993.23 hPa W 9 km/h 9 km/h 81% 0 mm 309 W/m2
11:09 3 °C 0 °C 993.26 hPa W 9 km/h 6 km/h 81% 0 mm 329 W/m2
11:14 3 °C 0 °C 993.43 hPa WNW 13 km/h 9 km/h 80% 0 mm 360 W/m2
11:19 3 °C 0 °C 993.5 hPa WNW 14 km/h 9 km/h 80% 0 mm 390 W/m2
11:24 3 °C 0 °C 993.57 hPa WNW 14 km/h 8 km/h 79% 0 mm 390 W/m2
11:29 4 °C 0 °C 993.74 hPa WNW 7 km/h 7 km/h 79% 0 mm 287 W/m2
11:34 4 °C 0 °C 993.77 hPa WNW 12 km/h 10 km/h 78% 0 mm 190 W/m2
11:39 4 °C 0 °C 993.87 hPa WNW 6 km/h 5 km/h 78% 0 mm 190 W/m2
11:44 4 °C 0 °C 993.94 hPa WNW 7 km/h 5 km/h 78% 0 mm 200 W/m2
11:49 4 °C 0 °C 993.97 hPa WNW 3 km/h 2 km/h 78% 0 mm 202 W/m2
11:54 4 °C 0 °C 994.07 hPa W 4 km/h 2 km/h 79% 0 mm 186 W/m2
11:59 4 °C 0 °C 994.11 hPa W 3 km/h 2 km/h 79% 0 mm 156 W/m2
12:04 4 °C 0 °C 994.14 hPa W 3 km/h 1 km/h 79% 0 mm 155 W/m2
12:09 4 °C 0 °C 994.14 hPa W 4 km/h 4 km/h 78% 0 mm 156 W/m2
12:14 4 °C 0 °C 994.11 hPa W 3 km/h 3 km/h 79% 0 mm 155 W/m2
12:19 4 °C 0 °C 994.18 hPa W 4 km/h 1 km/h 79% 0 mm 127 W/m2
12:24 4 °C 0 °C 994.24 hPa W 4 km/h 2 km/h 79% 0 mm 105 W/m2
12:29 4 °C 0 °C 994.31 hPa WSW 6 km/h 3 km/h 79% 0 mm 114 W/m2
12:34 3 °C 0 °C 994.35 hPa W 5 km/h 2 km/h 80% 0 mm 91 W/m2
12:39 3 °C 0 °C 994.28 hPa W 10 km/h 12 km/h 80% 0 mm 86 W/m2
12:44 3 °C 0 °C 994.35 hPa WNW 4 km/h 5 km/h 83% 0 mm 116 W/m2
12:49 3 °C 1 °C 994.35 hPa WNW 2 km/h   84% 0 mm 121 W/m2
12:54 3 °C 1 °C 994.28 hPa WNW 3 km/h 5 km/h 85% 0 mm 121 W/m2
12:59 3 °C 1 °C 994.28 hPa W 3 km/h 3 km/h 86% 0 mm 109 W/m2
13:04 3 °C 1 °C 994.28 hPa W 8 km/h 5 km/h 86% 0 mm 111 W/m2
13:09 3 °C 1 °C 994.28 hPa WNW 1 km/h 2 km/h 87% 0 mm 111 W/m2
13:14 3 °C 1 °C 994.24 hPa NW 3 km/h 3 km/h 88% 0 mm 120 W/m2
13:19 3 °C 1 °C 994.28 hPa WNW 1 km/h 1 km/h 89% 0 mm 118 W/m2
13:24 3 °C 1 °C 994.21 hPa W 4 km/h 2 km/h 89% 0 mm 107 W/m2
13:29 3 °C 1 °C 994.24 hPa W 3 km/h 5 km/h 90% 0 mm 105 W/m2
13:34 3 °C 1 °C 994.21 hPa W 6 km/h 5 km/h 90% 0 mm 93 W/m2
13:39 3 °C 1 °C 994.35 hPa WNW 5 km/h 4 km/h 90% 0 mm 74 W/m2
13:44 3 °C 1 °C 994.38 hPa W 8 km/h 8 km/h 90% 0 mm 67 W/m2
13:49 3 °C 2 °C 994.35 hPa WSW 8 km/h 6 km/h 91% 0 mm 39 W/m2
13:54 3 °C 1 °C 994.35 hPa W 9 km/h 8 km/h 91% 0.2 mm 26 W/m2
13:59 3 °C 1 °C 994.35 hPa WNW 6 km/h 3 km/h 91% 0.2 mm 23 W/m2
14:04 3 °C 1 °C 994.28 hPa W 13 km/h 7 km/h 92% 0.41 mm 47 W/m2
14:09 2 °C 1 °C 994.21 hPa W 9 km/h 6 km/h 92% 0.41 mm 67 W/m2
14:14 2 °C 1 °C 994.21 hPa WSW 7 km/h 7 km/h 92% 0.41 mm 93 W/m2
14:19 2 °C 1 °C 994.21 hPa WSW 7 km/h 5 km/h 93% 0.41 mm 93 W/m2
14:24 2 °C 1 °C 994.18 hPa SW 5 km/h 4 km/h 93% 0.41 mm 95 W/m2
14:29 2 °C 2 °C 994.14 hPa WSW 7 km/h 7 km/h 94% 0.41 mm 97 W/m2
14:34 3 °C 2 °C 994.11 hPa WSW 7 km/h 6 km/h 94% 0.41 mm 97 W/m2
14:39 3 °C 2 °C 994.11 hPa WSW 7 km/h 7 km/h 94% 0.41 mm 102 W/m2
14:44 3 °C 2 °C 994.07 hPa WSW 7 km/h 8 km/h 94% 0.41 mm 107 W/m2
14:49 3 °C 2 °C 994.07 hPa WSW 5 km/h 3 km/h 94% 0.41 mm 105 W/m2
14:54 3 °C 2 °C 994.07 hPa WSW 4 km/h 4 km/h 94% 0.41 mm 95 W/m2
14:59 3 °C 2 °C 994.04 hPa WSW 3 km/h 3 km/h 95% 0.2 mm 100 W/m2
15:04 3 °C 2 °C 994.04 hPa WSW 1 km/h 1 km/h 95% 0.2 mm 98 W/m2
15:09 3 °C 2 °C 994.04 hPa SW 3 km/h 4 km/h 94% 0 mm 95 W/m2
15:14 3 °C 2 °C 994.01 hPa SW 1 km/h   94% 0 mm 93 W/m2
15:19 3 °C 2 °C 994.01 hPa SW 1 km/h   94% 0 mm 84 W/m2
15:24 3 °C 2 °C 993.97 hPa SW 1 km/h 1 km/h 94% 0 mm 86 W/m2
15:29 3 °C 2 °C 993.97 hPa Calm     95% 0 mm 86 W/m2
15:34 3 °C 2 °C 993.87 hPa Calm     95% 0 mm 69 W/m2
15:39 3 °C 2 °C 993.84 hPa Calm     95% 0 mm 42 W/m2
15:44 3 °C 2 °C 993.84 hPa WNW 2 km/h 3 km/h 95% 0 mm 35 W/m2
15:49 3 °C 2 °C 993.77 hPa Calm     95% 0 mm 25 W/m2
15:54 3 °C 2 °C 993.8 hPa WNW 1 km/h   95% 0 mm 14 W/m2
15:59 3 °C 2 °C 993.84 hPa W 10 km/h 6 km/h 95% 0.2 mm 5 W/m2
16:04 3 °C 2 °C 993.77 hPa W 6 km/h 3 km/h 95% 0.41 mm 12 W/m2
16:09 3 °C 2 °C 993.74 hPa WSW 3 km/h 1 km/h 95% 0.41 mm 23 W/m2
16:14 3 °C 2 °C 993.74 hPa W 3 km/h 2 km/h 95% 0.41 mm 37 W/m2
16:19 3 °C 2 °C 993.63 hPa W 2 km/h 2 km/h 95% 0.41 mm 51 W/m2
16:24 3 °C 2 °C 993.57 hPa Calm     95% 0.41 mm 58 W/m2
16:29 3 °C 2 °C 993.5 hPa Calm     95% 0.41 mm 58 W/m2
16:34 3 °C 2 °C 993.5 hPa Calm     95% 0.41 mm 54 W/m2
16:39 3 °C 2 °C 993.5 hPa Calm     95% 0.41 mm 49 W/m2
16:44 3 °C 2 °C 993.53 hPa Calm     95% 0.41 mm 46 W/m2
16:49 3 °C 2 °C 993.57 hPa Calm     95% 0.41 mm 42 W/m2
16:54 3 °C 2 °C 993.63 hPa W 3 km/h 3 km/h 95% 0.41 mm 35 W/m2
16:59 3 °C 2 °C 993.67 hPa WNW 5 km/h 4 km/h 95% 0.41 mm 30 W/m2
17:04 3 °C 2 °C 993.67 hPa NW 6 km/h 5 km/h 95% 0.2 mm 32 W/m2
17:09 3 °C 2 °C 993.63 hPa NW 3 km/h 3 km/h 95% 0 mm 28 W/m2
17:14 2 °C 2 °C 993.57 hPa N 6 km/h 7 km/h 95% 0 mm 23 W/m2
17:19 2 °C 2 °C 993.53 hPa NNE 8 km/h 7 km/h 95% 0 mm 18 W/m2
17:24 2 °C 2 °C 993.53 hPa NNE 6 km/h 5 km/h 95% 0 mm 12 W/m2
17:29 2 °C 1 °C 993.6 hPa NNE 8 km/h 8 km/h 95% 0 mm 11 W/m2
17:34 2 °C 1 °C 993.6 hPa NE 6 km/h 5 km/h 95% 0 mm 5 W/m2
17:39 2 °C 1 °C 993.63 hPa NE 6 km/h 4 km/h 95% 0 mm 0 W/m2
17:44 2 °C 1 °C 993.6 hPa NE 4 km/h 2 km/h 95% 0 mm 0 W/m2
17:49 2 °C 1 °C 993.6 hPa NE 1 km/h 1 km/h 96% 0 mm 0 W/m2
17:54 2 °C 1 °C 993.67 hPa NE 2 km/h 1 km/h 96% 0 mm 0 W/m2
17:59 2 °C 1 °C 993.7 hPa Calm     96% 0 mm 0 W/m2
18:04 2 °C 1 °C 993.77 hPa NNE 5 km/h 7 km/h 96% 0 mm 0 W/m2
18:09 2 °C 1 °C 993.8 hPa NNE 9 km/h 9 km/h 96% 0 mm 0 W/m2
18:14 2 °C 1 °C 993.8 hPa NNE 5 km/h 5 km/h 96% 0 mm 0 W/m2
18:19 2 °C 1 °C 993.84 hPa N 4 km/h 4 km/h 96% 0 mm 0 W/m2
18:24 2 °C 1 °C 993.87 hPa NNE 2 km/h 3 km/h 96% 0 mm 0 W/m2
18:29 2 °C 1 °C 994.01 hPa N 7 km/h 6 km/h 96% 0 mm 0 W/m2
18:34 2 °C 1 °C 994.01 hPa N 7 km/h 7 km/h 96% 0 mm 0 W/m2
18:39 2 °C 1 °C 994.01 hPa NNW 6 km/h 6 km/h 96% 0 mm 0 W/m2
18:44 2 °C 1 °C 994.11 hPa NNW 6 km/h 5 km/h 96% 0 mm 0 W/m2
18:49 2 °C 1 °C 994.11 hPa NNW 3 km/h 3 km/h 96% 0 mm 0 W/m2
18:54 2 °C 1 °C 994.18 hPa NNW 5 km/h 4 km/h 96% 0 mm 0 W/m2
18:59 2 °C 1 °C 994.28 hPa NNW 6 km/h 7 km/h 96% 0 mm 0 W/m2
19:04 2 °C 1 °C 994.31 hPa NNW 7 km/h 7 km/h 97% 0 mm 0 W/m2
19:09 2 °C 1 °C 994.35 hPa NNW 4 km/h 5 km/h 96% 0 mm 0 W/m2
19:14 2 °C 1 °C 994.38 hPa NNW 3 km/h 2 km/h 96% 0 mm 0 W/m2
19:19 2 °C 1 °C 994.41 hPa NNW 2 km/h 1 km/h 96% 0 mm 0 W/m2
19:24 2 °C 1 °C 994.38 hPa NNW 2 km/h   96% 0 mm 0 W/m2
19:29 2 °C 1 °C 994.35 hPa NNW 1 km/h 1 km/h 97% 0 mm 0 W/m2
19:34 2 °C 1 °C 994.35 hPa NNW 1 km/h 1 km/h 97% 0 mm 0 W/m2
19:39 2 °C 1 °C 994.38 hPa NNW 1 km/h 1 km/h 97% 0 mm 0 W/m2
19:44 2 °C 1 °C 994.38 hPa Calm     96% 0 mm 0 W/m2
19:49 2 °C 1 °C 994.41 hPa Calm     96% 0 mm 0 W/m2
19:54 2 °C 1 °C 994.55 hPa Calm     97% 0 mm 0 W/m2
19:59 2 °C 1 °C 994.79 hPa Calm     97% 0 mm 0 W/m2
20:04 2 °C 1 °C 994.82 hPa NNW 2 km/h 2 km/h 97% 0 mm 0 W/m2
20:09 1 °C 1 °C 994.85 hPa NNW 1 km/h 1 km/h 96% 0 mm 0 W/m2
20:14 1 °C 1 °C 994.85 hPa Calm     96% 0 mm 0 W/m2
20:19 1 °C 1 °C 994.99 hPa Calm     96% 0 mm 0 W/m2
20:24 1 °C 1 °C 995.02 hPa N 7 km/h 7 km/h 96% 0 mm 0 W/m2
20:29 1 °C 1 °C 994.99 hPa N 4 km/h 3 km/h 97% 0 mm 0 W/m2
20:34 1 °C 1 °C 995.06 hPa NNE 2 km/h 1 km/h 97% 0 mm 0 W/m2
20:39 1 °C 1 °C 995.09 hPa NNE 3 km/h 2 km/h 96% 0 mm 0 W/m2
20:44 1 °C 1 °C 995.12 hPa Calm     96% 0 mm 0 W/m2
20:49 1 °C 1 °C 995.12 hPa NNE 1 km/h 1 km/h 97% 0 mm 0 W/m2
20:54 1 °C 1 °C 995.12 hPa Calm     97% 0 mm 0 W/m2
20:59 1 °C 1 °C 995.23 hPa NNE 2 km/h 2 km/h 97% 0 mm 0 W/m2
21:04 1 °C 1 °C 995.29 hPa NNE 4 km/h 2 km/h 97% 0 mm 0 W/m2
21:09 1 °C 0 °C 995.29 hPa N 3 km/h 2 km/h 97% 0 mm 0 W/m2
21:14 1 °C 0 °C 995.36 hPa NW 5 km/h 3 km/h 97% 0 mm 0 W/m2
21:19 1 °C 0 °C 995.6 hPa NW 6 km/h 7 km/h 97% 0 mm 0 W/m2
21:24 1 °C 0 °C 995.9 hPa NW 8 km/h 7 km/h 97% 0 mm 0 W/m2
21:29 1 °C 0 °C 996.04 hPa NW 8 km/h 6 km/h 97% 0 mm 0 W/m2
21:34 1 °C 0 °C 996.17 hPa WNW 6 km/h 4 km/h 97% 0 mm 0 W/m2
21:39 1 °C 0 °C 996.17 hPa NW 5 km/h 5 km/h 97% 0 mm 0 W/m2
21:44 1 °C 0 °C 996.17 hPa NW 7 km/h 8 km/h 97% 0 mm 0 W/m2
21:49 1 °C 0 °C 996.21 hPa NW 11 km/h 10 km/h 97% 0 mm 0 W/m2
21:54 1 °C 0 °C 996.24 hPa NW 7 km/h 5 km/h 96% 0 mm 0 W/m2
21:59 1 °C 0 °C 996.28 hPa NW 5 km/h 2 km/h 96% 0 mm 0 W/m2
22:04 1 °C 0 °C 996.38 hPa NNW 7 km/h 7 km/h 96% 0 mm 0 W/m2
22:09 1 °C 0 °C 996.38 hPa NW 7 km/h 5 km/h 96% 0 mm 0 W/m2
22:14 1 °C 0 °C 996.48 hPa NW 11 km/h 10 km/h 96% 0 mm 0 W/m2
22:19 1 °C 0 °C 996.55 hPa NW 14 km/h 13 km/h 95% 0 mm 0 W/m2
22:24 1 °C 0 °C 996.61 hPa NW 16 km/h 12 km/h 94% 0 mm 0 W/m2
22:29 1 °C 0 °C 996.72 hPa WNW 17 km/h 14 km/h 94% 0 mm 0 W/m2
22:34 1 °C 0 °C 996.82 hPa NW 22 km/h 18 km/h 93% 0 mm 0 W/m2
22:39 1 °C 0 °C 996.89 hPa NW 21 km/h 18 km/h 92% 0 mm 0 W/m2
22:44 1 °C 0 °C 996.95 hPa NW 19 km/h 17 km/h 91% 0 mm 0 W/m2
22:49 1 °C -1 °C 997.05 hPa NW 17 km/h 15 km/h 90% 0 mm 0 W/m2
22:54 1 °C -1 °C 997.16 hPa NNW 19 km/h 15 km/h 89% 0 mm 0 W/m2
22:59 1 °C -1 °C 997.22 hPa NNW 20 km/h 20 km/h 89% 0 mm 0 W/m2
23:04 1 °C -1 °C 997.22 hPa NW 24 km/h 22 km/h 88% 0 mm 0 W/m2
23:09 1 °C -1 °C 997.26 hPa NNW 23 km/h 22 km/h 87% 0 mm 0 W/m2
23:14 1 °C -1 °C 997.39 hPa NNW 18 km/h 17 km/h 86% 0 mm 0 W/m2
23:19 1 °C -1 °C 997.46 hPa NNW 19 km/h 17 km/h 86% 0 mm 0 W/m2
23:24 1 °C -1 °C 997.56 hPa NW 21 km/h 19 km/h 86% 0 mm 0 W/m2
23:29 1 °C -2 °C 997.6 hPa NW 19 km/h 18 km/h 85% 0 mm 0 W/m2
23:34 1 °C -2 °C 997.6 hPa NW 19 km/h 18 km/h 83% 0 mm 0 W/m2
23:39 1 °C -2 °C 997.7 hPa NW 19 km/h 17 km/h 83% 0 mm 0 W/m2
23:44 1 °C -2 °C 997.8 hPa NW 18 km/h 15 km/h 83% 0 mm 0 W/m2
23:49 0 °C -2 °C 997.93 hPa NNW 16 km/h 13 km/h 83% 0 mm 0 W/m2
23:54 0 °C -2 °C 998 hPa NNW 16 km/h 13 km/h 83% 0 mm 0 W/m2
23:59 0 °C -2 °C 998.04 hPa NNW 15 km/h 13 km/h 84% 0 mm 0 W/m2
Compliments of Weather Underground - 2 mb